Time;durP1;ratioP1;P1;durP2;ratioP2;P2;SDS_P1;SDS_P2;PMS_P1;PMS_P2;Temp;Humidity;BMP_temperature;BMP_pressure;BME280_temperature;BME280_humidity;BME280_pressure;Samples;Min_cycle;Max_cycle;Signal;HPM_P1;HPM_P2
2022/07/06 00:02:07;;;;;;;8.83;6.23;;;18.80;79.20;;;;;;5051585;28;20470;-49
2022/07/06 00:04:34;;;;;;;7.23;4.93;;;18.90;79.30;;;;;;5050681;28;20485;-49
2022/07/06 00:07:01;;;;;;;6.93;5.77;;;18.80;79.10;;;;;;5053075;28;20988;-50
2022/07/06 00:09:28;;;;;;;5.80;5.30;;;18.80;79.30;;;;;;5055875;28;21019;-49
2022/07/06 00:11:56;;;;;;;6.60;4.60;;;18.90;79.30;;;;;;5049812;28;20903;-49
2022/07/06 00:14:22;;;;;;;7.70;5.80;;;18.90;79.30;;;;;;5059290;28;20482;-48
2022/07/06 00:16:49;;;;;;;6.33;5.73;;;18.90;79.40;;;;;;5059267;28;20486;-49
2022/07/06 00:19:16;;;;;;;6.03;5.30;;;18.80;79.20;;;;;;5057664;28;20490;-49
2022/07/06 00:21:43;;;;;;;6.90;5.23;;;18.80;79.30;;;;;;5060038;28;20972;-49
2022/07/06 00:24:09;;;;;;;7.40;5.17;;;18.80;79.30;;;;;;5058122;28;20479;-49
2022/07/06 00:26:36;;;;;;;9.40;4.40;;;18.90;79.30;;;;;;5057105;28;20955;-49
2022/07/06 00:29:05;;;;;;;5.07;4.60;;;18.90;79.30;;;;;;5060842;28;20497;-49
2022/07/06 00:31:31;;;;;;;5.07;4.60;;;18.90;79.60;;;;;;5055236;28;21018;-49
2022/07/06 00:33:58;;;;;;;9.30;5.43;;;18.80;79.60;;;;;;5062028;28;20471;-48
2022/07/06 00:36:25;;;;;;;6.20;5.60;;;18.90;79.70;;;;;;5056403;28;20705;-48
2022/07/06 00:38:51;;;;;;;7.33;5.73;;;18.90;79.70;;;;;;5061097;28;21027;-48
2022/07/06 00:41:18;;;;;;;6.83;5.03;;;18.90;79.30;;;;;;5056866;28;20498;-48
2022/07/06 00:43:55;;;;;;;6.93;5.67;;;18.90;79.30;;;;;;5059451;28;20487;-48
2022/07/06 00:46:26;;;;;;;8.93;5.53;;;18.90;79.50;;;;;;5051891;28;20551;-48
2022/07/06 00:48:53;;;;;;;9.27;5.30;;;18.90;79.30;;;;;;5057542;28;20484;-48
2022/07/06 00:51:20;;;;;;;5.53;5.13;;;18.80;79.60;;;;;;5052132;28;20480;-48
2022/07/06 00:53:48;;;;;;;15.17;4.60;;;18.70;80.10;;;;;;5050499;28;20483;-48
2022/07/06 00:56:15;;;;;;;5.10;4.70;;;18.60;80.50;;;;;;5042992;28;21094;-48
2022/07/06 00:58:43;;;;;;;4.90;4.40;;;18.50;80.40;;;;;;5064031;28;20483;-48
2022/07/06 01:01:10;;;;;;;11.50;5.00;;;18.20;80.90;;;;;;5058313;28;20983;-49
2022/07/06 01:03:38;;;;;;;4.83;4.43;;;18.10;81.60;;;;;;5057643;28;20859;-48
2022/07/06 01:06:04;;;;;;;5.27;4.87;;;18.00;81.60;;;;;;5046622;28;20506;-49
2022/07/06 01:08:31;;;;;;;8.23;4.70;;;17.80;82.10;;;;;;5062076;28;20993;-48
2022/07/06 01:10:58;;;;;;;6.30;4.90;;;17.70;82.10;;;;;;5057182;28;20475;-48
2022/07/06 01:13:26;;;;;;;7.00;4.90;;;17.70;82.70;;;;;;5054313;28;20952;-48
2022/07/06 01:15:53;;;;;;;5.67;5.00;;;17.60;82.30;;;;;;5056054;28;21315;-48
2022/07/06 01:18:20;;;;;;;6.27;4.70;;;17.50;82.50;;;;;;5058735;28;20489;-48
2022/07/06 01:20:49;;;;;;;7.80;5.30;;;17.50;82.70;;;;;;5053338;28;20498;-48
2022/07/06 01:23:15;;;;;;;8.50;5.30;;;17.50;82.10;;;;;;5057172;28;20973;-48
2022/07/06 01:25:42;;;;;;;5.23;4.77;;;17.40;82.70;;;;;;5049740;28;20479;-48
2022/07/06 01:28:09;;;;;;;7.97;5.40;;;17.30;83.80;;;;;;5055021;28;20479;-48
2022/07/06 01:30:35;;;;;;;9.17;5.60;;;17.10;84.20;;;;;;5062169;28;20478;-49
2022/07/06 01:33:02;;;;;;;5.33;4.83;;;17.00;83.90;;;;;;5061549;28;20493;-48
2022/07/06 01:35:32;;;;;;;7.43;4.30;;;16.90;84.50;;;;;;5056742;28;20498;-48
2022/07/06 01:38:00;;;;;;;4.37;4.07;;;16.90;83.40;;;;;;5056727;28;20479;-48
2022/07/06 01:40:27;;;;;;;4.90;4.43;;;16.70;84.30;;;;;;5051298;28;20482;-48
2022/07/06 01:42:54;;;;;;;7.00;5.30;;;16.50;85.60;;;;;;5055980;28;20827;-48
2022/07/06 01:45:20;;;;;;;7.50;5.70;;;16.40;85.60;;;;;;5054962;28;20471;-48
2022/07/06 01:47:47;;;;;;;6.60;5.90;;;16.40;85.00;;;;;;5046596;28;20487;-48
2022/07/06 01:50:14;;;;;;;5.70;5.20;;;16.40;85.30;;;;;;5055477;28;20486;-48
2022/07/06 01:52:40;;;;;;;6.00;5.50;;;16.30;86.70;;;;;;5047758;28;20476;-48
2022/07/06 01:55:09;;;;;;;10.67;5.67;;;16.10;86.30;;;;;;5053928;28;20984;-48
2022/07/06 01:57:36;;;;;;;5.23;4.73;;;16.10;86.10;;;;;;5048626;28;20482;-48
2022/07/06 02:00:06;;;;;;;6.47;4.80;;;16.10;85.90;;;;;;5057262;28;20474;-49
2022/07/06 02:02:32;;;;;;;8.00;4.17;;;16.00;85.40;;;;;;5038076;28;20475;-48
2022/07/06 02:04:59;;;;;;;7.83;5.10;;;16.00;86.00;;;;;;5046230;28;20826;-48
2022/07/06 02:07:26;;;;;;;5.07;4.40;;;15.80;87.10;;;;;;5052614;28;20498;-48
2022/07/06 02:09:52;;;;;;;9.00;5.57;;;15.70;86.90;;;;;;5055541;28;20475;-48
2022/07/06 02:12:20;;;;;;;13.20;7.17;;;15.80;86.90;;;;;;5055533;28;20483;-48
2022/07/06 02:14:47;;;;;;;12.50;5.20;;;15.80;86.20;;;;;;5056631;28;20955;-48
2022/07/06 02:17:14;;;;;;;6.37;5.67;;;15.80;86.00;;;;;;5040871;28;20923;-48
2022/07/06 02:19:41;;;;;;;4.47;4.07;;;15.80;85.90;;;;;;5059855;28;20471;-48
2022/07/06 02:22:07;;;;;;;6.73;4.37;;;15.70;86.00;;;;;;5058668;28;20487;-49
2022/07/06 02:24:34;;;;;;;6.07;4.90;;;15.70;85.90;;;;;;5049182;28;20491;-48
2022/07/06 02:27:01;;;;;;;6.30;5.33;;;15.60;85.60;;;;;;5059188;28;20529;-48
2022/07/06 02:29:29;;;;;;;6.17;5.27;;;15.50;86.80;;;;;;5053783;28;20467;-48
2022/07/06 02:31:55;;;;;;;4.90;4.50;;;15.40;86.90;;;;;;5057502;28;20929;-48
2022/07/06 02:34:22;;;;;;;7.30;6.60;;;15.40;87.30;;;;;;5048870;28;20497;-48
2022/07/06 02:36:49;;;;;;;8.87;5.50;;;15.40;87.80;;;;;;5046599;28;20478;-53
2022/07/06 02:39:15;;;;;;;6.63;5.07;;;15.30;87.70;;;;;;5051988;28;20474;-48
2022/07/06 02:41:42;;;;;;;5.83;5.33;;;15.30;87.50;;;;;;5054838;28;20494;-48
2022/07/06 02:44:09;;;;;;;6.10;5.50;;;15.30;86.50;;;;;;5056843;28;20483;-49
2022/07/06 02:46:37;;;;;;;7.53;5.57;;;15.30;86.20;;;;;;5058237;28;21237;-48
2022/07/06 02:49:03;;;;;;;5.80;5.20;;;15.20;86.80;;;;;;5052550;28;20510;-49
2022/07/06 02:51:30;;;;;;;5.53;4.87;;;15.20;86.80;;;;;;5044347;28;20497;-48
2022/07/06 02:53:57;;;;;;;5.60;5.03;;;15.10;86.80;;;;;;5057115;28;20520;-48
2022/07/06 02:56:23;;;;;;;6.33;5.73;;;15.10;86.60;;;;;;5055060;28;20490;-48
2022/07/06 02:58:50;;;;;;;5.37;4.97;;;14.90;87.20;;;;;;5055040;28;20482;-49
2022/07/06 03:01:17;;;;;;;6.20;5.70;;;14.80;87.50;;;;;;5054276;28;20486;-48
2022/07/06 03:03:45;;;;;;;5.17;4.47;;;14.80;87.20;;;;;;5052336;28;20479;-48
2022/07/06 03:06:12;;;;;;;6.37;5.77;;;14.80;87.50;;;;;;5053817;28;21201;-48
2022/07/06 03:08:38;;;;;;;6.37;4.33;;;14.80;87.20;;;;;;5010525;28;20490;-49
2022/07/06 03:11:05;;;;;;;4.90;4.47;;;14.80;87.10;;;;;;4986298;28;20483;-48
2022/07/06 03:13:32;;;;;;;5.23;4.60;;;14.80;86.50;;;;;;5034197;28;20498;-48
2022/07/06 03:15:59;;;;;;;5.40;4.23;;;14.80;86.40;;;;;;5000802;28;20486;-48
2022/07/06 03:18:26;;;;;;;5.70;5.10;;;14.80;86.70;;;;;;5051500;28;20855;-48
2022/07/06 03:20:54;;;;;;;6.00;4.37;;;14.70;88.00;;;;;;5027125;28;20481;-47
2022/07/06 03:23:20;;;;;;;7.00;6.30;;;14.70;87.80;;;;;;5044877;28;20479;-48
2022/07/06 03:25:47;;;;;;;12.43;5.97;;;14.70;88.10;;;;;;5041575;28;21014;-48
2022/07/06 03:28:14;;;;;;;10.23;4.50;;;14.70;87.60;;;;;;5012156;28;20466;-47
2022/07/06 03:30:41;;;;;;;4.83;4.33;;;14.70;87.40;;;;;;5007077;28;21941;-48
2022/07/06 03:33:07;;;;;;;4.70;4.40;;;14.60;87.60;;;;;;5032948;28;20973;-47
2022/07/06 03:35:34;;;;;;;6.40;4.90;;;14.50;87.50;;;;;;5005264;28;20996;-48
2022/07/06 03:38:03;;;;;;;4.47;4.10;;;14.50;88.30;;;;;;5024759;28;21376;-48
2022/07/06 03:40:30;;;;;;;6.17;5.70;;;14.40;87.40;;;;;;4986193;28;20972;-48
2022/07/06 03:42:56;;;;;;;4.83;3.77;;;14.30;87.70;;;;;;5014930;28;20494;-48
2022/07/06 03:45:23;;;;;;;6.17;5.30;;;12.80;86.10;;;;;;5027303;28;21010;-48
2022/07/06 03:47:50;;;;;;;4.53;4.13;;;14.30;87.50;;;;;;5011074;28;20485;-48
2022/07/06 03:50:17;;;;;;;6.40;4.67;;;14.30;87.90;;;;;;5037613;28;20829;-48
2022/07/06 03:52:43;;;;;;;4.93;4.43;;;14.30;88.10;;;;;;5006349;28;20493;-48
2022/07/06 03:55:12;;;;;;;5.17;4.63;;;14.30;87.80;;;;;;5009930;28;20503;-47
2022/07/06 03:57:40;;;;;;;7.30;4.93;;;14.30;87.80;;;;;;4971717;28;21002;-48
2022/07/06 04:00:09;;;;;;;5.43;4.47;;;14.20;88.80;;;;;;5039264;28;21080;-47
2022/07/06 04:02:36;;;;;;;6.97;4.80;;;14.20;88.90;;;;;;4961652;28;20482;-48
2022/07/06 04:05:03;;;;;;;7.17;4.37;;;14.10;88.80;;;;;;5018524;28;20483;-48
2022/07/06 04:07:30;;;;;;;7.23;5.67;;;14.00;88.70;;;;;;5050786;28;20505;-48
2022/07/06 04:09:56;;;;;;;5.40;4.43;;;13.90;89.50;;;;;;4974344;28;20500;-48
2022/07/06 04:12:25;;;;;;;7.50;4.37;;;13.90;89.40;;;;;;5043687;28;20520;-48
2022/07/06 04:14:51;;;;;;;4.50;3.93;;;13.90;89.90;;;;;;4986604;28;20860;-47
2022/07/06 04:20:03;;;;;;;4.53;4.13;;;14.00;90.10;;;;;;5030169;28;20520;-47
2022/07/06 04:22:30;;;;;;;6.57;6.03;;;14.00;89.80;;;;;;5048920;28;20475;-47
2022/07/06 04:24:57;;;;;;;6.97;4.60;;;13.90;90.10;;;;;;5050034;28;20480;-47
2022/07/06 04:27:25;;;;;;;4.47;4.07;;;13.80;90.60;;;;;;5047846;28;20489;-49
2022/07/06 04:29:51;;;;;;;5.70;5.20;;;13.70;91.10;;;;;;5057493;28;20482;-47
2022/07/06 04:32:18;;;;;;;11.30;5.50;;;13.60;91.40;;;;;;5059556;28;20883;-47
2022/07/06 04:34:45;;;;;;;5.83;5.23;;;13.60;92.00;;;;;;5064955;28;20479;-47
2022/07/06 04:37:11;;;;;;;6.03;5.27;;;13.60;92.40;;;;;;5057564;28;20491;-47
2022/07/06 04:39:38;;;;;;;9.80;5.33;;;13.60;93.20;;;;;;5056581;28;20495;-47
2022/07/06 04:42:05;;;;;;;8.20;6.57;;;13.60;93.40;;;;;;5063159;28;20493;-47
2022/07/06 04:44:33;;;;;;;8.87;6.43;;;13.60;93.40;;;;;;5058370;28;20532;-47
2022/07/06 04:47:00;;;;;;;6.10;5.03;;;13.80;93.00;;;;;;5056615;28;20490;-47
2022/07/06 04:49:26;;;;;;;6.00;5.40;;;13.90;93.10;;;;;;5058615;28;20489;-47
2022/07/06 04:51:53;;;;;;;5.73;5.13;;;14.00;93.10;;;;;;5056494;28;20474;-50
2022/07/06 04:54:20;;;;;;;13.07;6.37;;;14.10;92.70;;;;;;5058233;28;20498;-47
2022/07/06 04:56:47;;;;;;;6.60;6.00;;;14.30;92.80;;;;;;5059200;28;20470;-47
2022/07/06 04:59:15;;;;;;;6.23;5.73;;;14.40;93.10;;;;;;5058424;28;20509;-47
2022/07/06 05:01:43;;;;;;;7.10;5.17;;;14.60;93.00;;;;;;5057481;28;20482;-47
2022/07/06 05:04:10;;;;;;;5.17;4.67;;;14.70;92.80;;;;;;5057627;28;20486;-47
2022/07/06 05:06:36;;;;;;;6.73;4.77;;;14.80;92.90;;;;;;5060982;28;20486;-47
2022/07/06 05:09:03;;;;;;;5.30;4.80;;;14.90;93.00;;;;;;5048871;28;20479;-48
2022/07/06 05:11:30;;;;;;;5.43;5.00;;;15.10;92.80;;;;;;5054619;28;20477;-48
2022/07/06 05:13:57;;;;;;;7.07;5.00;;;15.20;92.80;;;;;;5051008;28;20476;-51
2022/07/06 05:16:24;;;;;;;6.83;5.37;;;15.30;93.10;;;;;;5056617;28;20838;-49
2022/07/06 05:18:52;;;;;;;5.07;4.67;;;15.30;93.30;;;;;;5062732;28;20498;-47
2022/07/06 05:21:19;;;;;;;5.27;4.77;;;15.50;93.60;;;;;;5060008;28;20485;-47
2022/07/06 05:23:45;;;;;;;8.70;5.20;;;15.50;93.80;;;;;;5057042;28;20497;-47
2022/07/06 05:26:12;;;;;;;8.83;5.20;;;15.70;94.10;;;;;;5053291;28;20892;-48
2022/07/06 05:28:39;;;;;;;6.27;5.00;;;15.70;94.20;;;;;;5055699;28;20479;-47
2022/07/06 05:31:06;;;;;;;6.07;4.93;;;15.80;94.20;;;;;;5054476;28;21031;-47
2022/07/06 05:33:33;;;;;;;4.83;4.40;;;15.90;94.30;;;;;;5057541;28;20478;-48
2022/07/06 05:36:01;;;;;;;6.90;4.10;;;16.20;92.40;;;;;;5048451;28;20481;-48
2022/07/06 05:38:27;;;;;;;15.83;4.63;;;16.40;91.80;;;;;;5047770;28;20497;-48
2022/07/06 05:40:54;;;;;;;3.77;3.47;;;16.50;91.80;;;;;;5059187;28;20484;-48
2022/07/06 05:43:21;;;;;;;7.23;4.07;;;16.80;91.30;;;;;;5055712;28;20485;-48
2022/07/06 05:45:48;;;;;;;5.27;3.73;;;16.80;91.60;;;;;;5055553;28;20953;-48
2022/07/06 05:50:58;;;;;;;4.00;3.60;;;17.10;90.90;;;;;;5047182;28;20510;-48
2022/07/06 05:53:26;;;;;;;5.80;4.13;;;17.20;90.60;;;;;;5057464;28;21059;-49
2022/07/06 05:55:53;;;;;;;6.90;4.20;;;17.30;90.60;;;;;;5046167;28;21044;-48
2022/07/06 05:58:20;;;;;;;6.23;3.60;;;17.50;90.60;;;;;;5034138;28;20476;-48
2022/07/06 06:00:47;;;;;;;5.63;4.10;;;17.60;89.80;;;;;;5050241;28;20848;-48
2022/07/06 06:03:13;;;;;;;7.07;4.10;;;17.70;89.70;;;;;;5057148;28;20483;-48
2022/07/06 06:05:40;;;;;;;3.80;3.50;;;17.70;90.00;;;;;;5058848;28;20521;-48
2022/07/06 06:08:07;;;;;;;7.53;4.43;;;17.90;89.20;;;;;;5056311;28;20999;-48
2022/07/06 06:10:35;;;;;;;3.33;3.03;;;17.80;89.80;;;;;;5057560;28;20494;-49
2022/07/06 06:13:02;;;;;;;5.00;3.60;;;18.10;89.60;;;;;;5057425;28;20479;-48
2022/07/06 06:15:29;;;;;;;4.77;3.17;;;18.20;89.00;;;;;;5056208;28;20873;-48
2022/07/06 06:17:55;;;;;;;3.77;3.33;;;18.30;89.20;;;;;;5055451;28;20479;-48
2022/07/06 06:20:22;;;;;;;4.60;4.20;;;18.50;87.70;;;;;;5054954;28;20988;-48
2022/07/06 06:22:51;;;;;;;4.70;3.47;;;18.80;84.90;;;;;;5056242;28;20483;-50
2022/07/06 06:25:19;;;;;;;4.67;3.37;;;18.80;85.30;;;;;;5054583;28;20482;-49
2022/07/06 06:27:48;;;;;;;4.77;3.57;;;18.90;85.10;;;;;;5055773;28;21015;-48
2022/07/06 06:30:15;;;;;;;5.50;3.00;;;19.00;85.20;;;;;;5063636;28;20485;-48
2022/07/06 06:32:42;;;;;;;4.60;2.80;;;19.10;83.40;;;;;;5052910;28;20482;-49
2022/07/06 06:35:09;;;;;;;5.87;3.63;;;19.10;82.80;;;;;;5056264;28;20494;-49
2022/07/06 06:37:36;;;;;;;4.43;3.30;;;19.10;81.90;;;;;;5053923;28;20478;-49
2022/07/06 06:40:04;;;;;;;4.70;3.80;;;19.20;82.80;;;;;;5059195;28;20471;-49
2022/07/06 06:42:31;;;;;;;7.40;3.40;;;19.30;81.70;;;;;;5055780;28;20482;-49
2022/07/06 06:44:59;;;;;;;4.70;3.10;;;19.30;82.30;;;;;;5032323;28;20476;-49
2022/07/06 06:47:26;;;;;;;6.83;3.20;;;19.40;82.40;;;;;;5044222;28;20496;-50
2022/07/06 06:49:52;;;;;;;8.67;3.27;;;19.50;80.70;;;;;;5058652;28;20982;-50
2022/07/06 06:52:19;;;;;;;3.23;2.93;;;19.60;80.70;;;;;;5055050;28;20487;-49
2022/07/06 06:54:46;;;;;;;6.17;2.87;;;19.60;82.10;;;;;;5055461;28;20495;-49
2022/07/06 06:57:12;;;;;;;5.80;2.90;;;19.80;79.80;;;;;;5047194;28;21079;-49
2022/07/06 06:59:39;;;;;;;3.70;2.60;;;20.00;79.70;;;;;;5056915;28;20475;-49
2022/07/06 07:02:07;;;;;;;14.27;3.70;;;20.10;80.20;;;;;;5046864;28;20492;-49
2022/07/06 07:04:34;;;;;;;5.03;2.40;;;20.40;78.30;;;;;;5061841;28;20502;-49
2022/07/06 07:07:01;;;;;;;4.47;3.00;;;20.40;77.20;;;;;;5057476;28;20521;-50
2022/07/06 07:09:28;;;;;;;2.73;2.50;;;20.70;77.00;;;;;;5031574;28;20475;-50
2022/07/06 07:11:55;;;;;;;3.20;2.70;;;20.80;77.10;;;;;;5052813;28;20473;-49
2022/07/06 07:14:21;;;;;;;4.73;3.17;;;21.00;76.30;;;;;;5059593;28;20507;-50
2022/07/06 07:16:48;;;;;;;5.67;2.57;;;21.10;76.00;;;;;;5056206;28;20495;-50
2022/07/06 07:19:16;;;;;;;5.93;3.17;;;21.30;75.90;;;;;;5058066;28;20486;-51
2022/07/06 07:21:43;;;;;;;3.67;2.40;;;21.30;75.10;;;;;;5060092;28;20493;-51
2022/07/06 07:24:10;;;;;;;4.10;2.50;;;21.40;75.00;;;;;;5060562;28;20495;-51
2022/07/06 07:26:36;;;;;;;5.40;2.80;;;21.50;75.00;;;;;;5061482;28;20482;-50
2022/07/06 07:29:03;;;;;;;6.60;2.80;;;21.70;74.50;;;;;;5059147;28;21144;-50
2022/07/06 07:31:30;;;;;;;6.20;2.60;;;21.80;73.50;;;;;;5059816;28;20467;-51
2022/07/06 07:33:58;;;;;;;5.97;2.43;;;22.10;74.00;;;;;;5057870;28;20864;-50
2022/07/06 07:36:27;;;;;;;8.73;2.73;;;22.20;74.30;;;;;;5058763;28;20539;-50
2022/07/06 07:38:53;;;;;;;2.93;2.10;;;22.30;74.90;;;;;;5058824;28;20874;-50
2022/07/06 07:41:20;;;;;;;5.20;2.63;;;22.70;71.80;;;;;;5050466;28;20482;-49
2022/07/06 07:43:47;;;;;;;3.20;1.93;;;22.80;72.40;;;;;;5059242;28;20505;-50
2022/07/06 07:46:13;;;;;;;2.33;2.03;;;22.90;70.30;;;;;;5057584;28;20485;-49
2022/07/06 07:48:40;;;;;;;4.40;2.63;;;22.90;70.90;;;;;;5058277;28;20987;-49
2022/07/06 07:51:07;;;;;;;5.10;2.80;;;22.90;71.50;;;;;;5058486;28;20494;-49
2022/07/06 07:53:35;;;;;;;3.70;3.10;;;23.00;71.20;;;;;;5058028;28;20864;-51
2022/07/06 07:56:02;;;;;;;6.43;3.03;;;23.20;69.90;;;;;;5061566;28;20556;-51
2022/07/06 07:58:29;;;;;;;3.17;2.77;;;23.20;69.20;;;;;;5062339;28;20481;-50
2022/07/06 08:00:55;;;;;;;5.60;2.77;;;23.20;68.90;;;;;;5058881;28;20466;-50
2022/07/06 08:03:22;;;;;;;4.93;3.13;;;23.30;69.40;;;;;;5058433;28;20483;-51
2022/07/06 08:05:50;;;;;;;2.93;2.37;;;23.30;69.80;;;;;;5059397;28;20486;-50
2022/07/06 08:08:17;;;;;;;2.67;2.47;;;23.30;69.20;;;;;;5060258;28;20925;-50
2022/07/06 08:10:45;;;;;;;3.93;2.97;;;23.10;68.70;;;;;;5054045;28;21026;-50
2022/07/06 08:13:14;;;;;;;3.67;2.53;;;23.10;67.60;;;;;;5056613;28;20579;-49
2022/07/06 08:15:41;;;;;;;3.30;3.00;;;23.30;70.50;;;;;;5048223;28;20533;-50
2022/07/06 08:18:09;;;;;;;4.83;2.27;;;23.60;69.50;;;;;;5054445;28;20475;-51
2022/07/06 08:20:35;;;;;;;3.37;2.60;;;23.60;66.70;;;;;;5052255;28;21051;-50
2022/07/06 08:23:02;;;;;;;3.60;2.70;;;23.60;68.50;;;;;;5049864;28;20488;-49
2022/07/06 08:25:29;;;;;;;4.87;2.20;;;23.90;67.80;;;;;;5057336;28;20483;-50
2022/07/06 08:27:57;;;;;;;5.33;2.70;;;24.10;68.30;;;;;;5054173;28;20490;-50
2022/07/06 08:30:23;;;;;;;4.90;3.20;;;24.20;68.60;;;;;;5058128;28;20474;-51
2022/07/06 08:32:50;;;;;;;3.80;1.80;;;24.40;68.50;;;;;;5060714;28;20482;-51
2022/07/06 08:35:17;;;;;;;2.90;2.20;;;24.50;68.40;;;;;;5063245;28;20824;-50
2022/07/06 08:37:44;;;;;;;3.90;2.50;;;24.50;66.00;;;;;;5057227;28;20487;-51
2022/07/06 08:40:11;;;;;;;7.73;2.70;;;24.40;66.40;;;;;;5058083;28;20579;-51
2022/07/06 08:42:38;;;;;;;5.10;2.47;;;24.50;65.70;;;;;;5056094;28;20483;-51
2022/07/06 08:45:08;;;;;;;2.50;2.23;;;24.60;67.40;;;;;;5057271;28;20482;-51
2022/07/06 08:47:37;;;;;;;3.50;2.60;;;24.90;66.50;;;;;;5046495;28;20483;-51
2022/07/06 08:50:05;;;;;;;3.30;2.60;;;25.00;67.80;;;;;;5059067;28;20479;-52
2022/07/06 08:52:32;;;;;;;4.67;2.90;;;25.20;65.00;;;;;;5028634;28;20498;-52
2022/07/06 08:55:00;;;;;;;5.30;2.70;;;25.20;65.00;;;;;;5056686;28;20481;-52
2022/07/06 08:57:27;;;;;;;3.60;2.50;;;25.30;66.80;;;;;;5048590;28;20512;-52
2022/07/06 08:59:53;;;;;;;8.30;2.40;;;25.40;64.20;;;;;;5063474;28;20474;-51
2022/07/06 09:02:25;;;;;;;5.20;2.00;;;25.50;65.70;;;;;;5051670;28;20490;-51
2022/07/06 09:04:56;;;;;;;4.83;1.97;;;25.50;65.30;;;;;;5058286;28;21178;-50
2022/07/06 09:07:23;;;;;;;6.10;2.20;;;25.60;65.50;;;;;;5056067;28;20479;-51
2022/07/06 09:09:52;;;;;;;5.00;2.07;;;25.40;62.20;;;;;;5055490;28;20498;-51
2022/07/06 09:12:18;;;;;;;3.33;2.47;;;25.40;64.50;;;;;;5047533;28;20933;-51
2022/07/06 09:14:45;;;;;;;4.03;2.03;;;25.50;62.70;;;;;;5059347;28;20471;-50
2022/07/06 09:17:13;;;;;;;3.63;2.30;;;25.50;63.30;;;;;;5057409;28;20479;-50
2022/07/06 09:19:41;;;;;;;2.60;2.33;;;25.40;64.30;;;;;;5055997;28;20960;-51
2022/07/06 09:22:08;;;;;;;3.43;2.07;;;25.30;64.40;;;;;;5057578;28;20485;-51
2022/07/06 09:24:43;;;;;;;2.57;2.17;;;25.30;63.90;;;;;;5056310;28;20478;-52
2022/07/06 09:27:16;;;;;;;4.30;1.93;;;25.50;62.80;;;;;;5041416;28;20504;-53
2022/07/06 09:29:43;;;;;;;2.47;1.73;;;25.70;62.60;;;;;;5051817;28;20478;-52
2022/07/06 09:32:10;;;;;;;3.20;1.73;;;25.70;60.00;;;;;;5040587;28;20944;-51
2022/07/06 09:34:46;;;;;;;2.53;2.07;;;25.90;60.30;;;;;;5028627;28;20479;-52
2022/07/06 09:37:14;;;;;;;1.90;1.63;;;26.00;59.90;;;;;;5055428;28;20479;-54
2022/07/06 09:39:42;;;;;;;2.20;1.27;;;;;;;;;;5052813;28;20478;-53
2022/07/06 09:42:11;;;;;;;2.50;1.30;;;26.00;55.80;;;;;;5026201;28;20868;-51
2022/07/06 09:44:39;;;;;;;4.00;1.67;;;26.00;57.20;;;;;;5051897;28;20487;-52
2022/07/06 09:47:08;;;;;;;3.50;1.70;;;26.20;59.00;;;;;;5038610;28;20442;-51
2022/07/06 09:49:35;;;;;;;3.50;1.87;;;26.20;57.50;;;;;;5054587;28;20470;-51
2022/07/06 09:52:05;;;;;;;4.97;1.60;;;26.20;58.90;;;;;;5056564;28;20490;-54
2022/07/06 09:54:34;;;;;;;4.57;1.57;;;26.10;56.60;;;;;;5054718;28;20455;-53
2022/07/06 09:57:01;;;;;;;4.17;1.23;;;26.20;58.80;;;;;;5053162;28;20514;-55
2022/07/06 09:59:29;;;;;;;5.57;2.13;;;26.20;57.80;;;;;;5047752;28;20496;-54
2022/07/06 10:01:57;;;;;;;5.30;1.80;;;26.20;57.80;;;;;;5054843;28;20483;-54
2022/07/06 10:04:26;;;;;;;6.07;1.67;;;26.20;59.20;;;;;;5054494;28;20493;-52
2022/07/06 10:06:53;;;;;;;4.30;2.17;;;26.10;58.10;;;;;;5055283;28;20861;-53
2022/07/06 10:09:23;;;;;;;3.50;1.80;;;26.30;60.20;;;;;;5047068;28;20474;-53
2022/07/06 10:11:52;;;;;;;4.77;1.80;;;26.40;58.20;;;;;;5056150;28;20839;-53
2022/07/06 10:14:21;;;;;;;2.00;1.40;;;;;;;;;;5046053;28;20474;-54
2022/07/06 10:16:49;;;;;;;3.70;1.67;;;26.50;58.00;;;;;;5048085;28;20475;-54
2022/07/06 10:19:17;;;;;;;5.23;1.60;;;26.70;58.30;;;;;;5055140;28;20482;-54
2022/07/06 10:21:45;;;;;;;2.40;1.30;;;26.70;56.50;;;;;;5029320;28;20795;-53
2022/07/06 10:24:13;;;;;;;3.90;1.60;;;26.60;56.00;;;;;;5054964;28;20490;-53
2022/07/06 10:26:42;;;;;;;2.27;1.60;;;26.60;55.60;;;;;;5053450;28;20487;-52
2022/07/06 10:29:09;;;;;;;1.90;1.20;;;26.40;54.20;;;;;;5057244;28;20941;-52
2022/07/06 10:31:44;;;;;;;6.33;1.83;;;26.50;56.90;;;;;;5054662;28;20486;-53
2022/07/06 10:34:14;;;;;;;3.70;1.83;;;26.50;56.30;;;;;;5051515;28;20482;-53
2022/07/06 10:36:42;;;;;;;6.20;1.97;;;26.20;55.80;;;;;;5050572;28;20483;-51
2022/07/06 10:41:55;;;;;;;2.33;1.57;;;26.00;58.30;;;;;;5051938;28;20481;-53
2022/07/06 10:44:24;;;;;;;3.13;1.60;;;26.20;56.60;;;;;;5050197;28;20471;-53
2022/07/06 10:46:53;;;;;;;2.27;1.30;;;26.30;56.80;;;;;;5033128;28;20483;-52
2022/07/06 10:49:20;;;;;;;2.20;1.47;;;26.30;56.80;;;;;;5059931;28;20502;-52
2022/07/06 10:51:49;;;;;;;3.27;1.90;;;26.60;57.40;;;;;;5065189;28;20466;-51
2022/07/06 10:54:17;;;;;;;2.57;1.53;;;26.70;56.10;;;;;;5060767;28;20467;-52
2022/07/06 10:56:45;;;;;;;3.50;1.87;;;26.70;55.60;;;;;;5060231;28;20478;-52
2022/07/06 10:59:14;;;;;;;4.83;2.13;;;26.80;57.00;;;;;;5053877;28;20847;-52
2022/07/06 11:01:43;;;;;;;3.40;2.50;;;26.90;56.10;;;;;;5047057;28;20482;-52
2022/07/06 11:04:10;;;;;;;3.40;1.70;;;26.90;53.80;;;;;;5061938;28;20597;-52
2022/07/06 11:06:38;;;;;;;2.67;1.77;;;26.80;55.20;;;;;;5058646;28;20482;-52
2022/07/06 11:09:06;;;;;;;7.07;2.90;;;26.60;55.20;;;;;;5063421;28;20890;-53
2022/07/06 11:11:41;;;;;;;2.47;1.40;;;26.60;55.10;;;;;;5059629;28;20722;-52
2022/07/06 11:14:09;;;;;;;2.30;1.60;;;26.60;57.00;;;;;;5064614;28;20479;-52
2022/07/06 11:16:40;;;;;;;4.43;1.90;;;26.70;56.30;;;;;;5055182;28;20897;-53
2022/07/06 11:19:10;;;;;;;3.00;1.87;;;26.80;57.20;;;;;;5064034;28;21024;-52
2022/07/06 11:21:44;;;;;;;4.53;2.10;;;26.60;52.40;;;;;;5057460;28;20532;-53
2022/07/06 11:24:13;;;;;;;2.33;1.87;;;26.70;55.60;;;;;;5049968;28;20478;-53
2022/07/06 11:26:40;;;;;;;2.33;1.53;;;26.90;57.60;;;;;;5061183;28;20483;-51
2022/07/06 11:29:09;;;;;;;3.40;1.80;;;26.90;56.90;;;;;;5061049;28;20487;-52
2022/07/06 11:31:39;;;;;;;2.67;1.60;;;27.10;56.70;;;;;;5048929;28;20474;-53
2022/07/06 11:34:07;;;;;;;3.10;1.43;;;27.20;57.10;;;;;;5059905;28;20490;-52
2022/07/06 11:36:35;;;;;;;5.00;1.53;;;27.10;54.70;;;;;;5056252;28;20580;-53
2022/07/06 11:39:02;;;;;;;4.30;1.70;;;27.10;57.10;;;;;;5055332;28;20474;-52
2022/07/06 11:41:29;;;;;;;2.50;1.60;;;27.10;55.60;;;;;;5064848;28;20478;-52
2022/07/06 11:43:55;;;;;;;2.30;1.53;;;27.10;55.80;;;;;;5061335;28;20908;-52
2022/07/06 11:46:25;;;;;;;2.20;2.00;;;27.10;54.60;;;;;;5051353;28;20486;-50
2022/07/06 11:48:55;;;;;;;2.60;1.87;;;26.70;53.50;;;;;;5031436;28;20466;-50
2022/07/06 11:51:22;;;;;;;2.80;2.00;;;26.40;55.10;;;;;;5031683;28;20474;-51
2022/07/06 11:53:51;;;;;;;2.30;1.57;;;26.60;57.10;;;;;;5056147;28;20502;-52
2022/07/06 11:56:21;;;;;;;2.90;1.80;;;27.10;58.20;;;;;;5056260;28;20486;-54
2022/07/06 11:58:50;;;;;;;3.47;1.80;;;27.10;54.70;;;;;;5063179;28;20480;-52
2022/07/06 12:01:17;;;;;;;3.40;1.20;;;27.10;56.60;;;;;;5058959;28;20470;-52
2022/07/06 12:03:44;;;;;;;2.67;1.77;;;26.80;51.70;;;;;;5060674;28;20470;-53
2022/07/06 12:06:18;;;;;;;3.70;1.63;;;26.80;53.70;;;;;;5054972;28;20902;-52
2022/07/06 12:08:47;;;;;;;2.77;1.50;;;26.80;55.10;;;;;;5049598;28;20533;-53
2022/07/06 12:11:22;;;;;;;2.30;1.60;;;26.80;53.90;;;;;;5059337;28;20513;-52
2022/07/06 12:13:50;;;;;;;2.50;1.50;;;26.80;53.50;;;;;;5057763;28;20570;-55
2022/07/06 12:16:17;;;;;;;2.93;1.20;;;26.80;53.50;;;;;;5054289;28;20486;-52
2022/07/06 12:18:45;;;;;;;3.80;1.40;;;26.90;53.10;;;;;;5057186;28;20491;-53
2022/07/06 12:21:13;;;;;;;3.60;1.67;;;26.90;54.80;;;;;;5052597;28;20644;-52
2022/07/06 12:23:43;;;;;;;1.97;1.10;;;27.10;53.50;;;;;;5056240;28;20483;-49
2022/07/06 12:26:10;;;;;;;2.60;1.40;;;27.30;52.30;;;;;;5053865;28;20483;-48
2022/07/06 12:28:38;;;;;;;2.67;1.30;;;27.30;53.60;;;;;;5056785;28;20594;-49
2022/07/06 12:31:04;;;;;;;5.80;1.67;;;27.30;55.80;;;;;;5057885;28;21418;-49
2022/07/06 12:33:31;;;;;;;2.73;1.53;;;27.30;56.60;;;;;;5059231;28;20483;-48
2022/07/06 12:36:09;;;;;;;4.10;1.50;;;27.40;55.10;;;;;;5055323;28;20475;-49
2022/07/06 12:38:36;;;;;;;3.10;1.73;;;27.30;53.90;;;;;;5056110;28;20496;-48
2022/07/06 12:41:04;;;;;;;2.10;1.67;;;27.30;54.00;;;;;;5058673;28;20819;-50
2022/07/06 12:43:38;;;;;;;8.07;1.93;;;27.00;54.90;;;;;;5040491;28;20487;-48
2022/07/06 12:46:24;;;;;;;2.80;1.57;;;27.00;55.50;;;;;;5058606;28;20487;-50
2022/07/06 12:48:54;;;;;;;2.20;1.67;;;26.60;55.50;;;;;;5053952;28;20478;-49
2022/07/06 12:51:21;;;;;;;2.60;1.40;;;26.70;57.20;;;;;;5054697;28;20980;-49
2022/07/06 12:53:48;;;;;;;3.07;1.90;;;26.80;57.10;;;;;;5056283;28;20475;-49
2022/07/06 12:56:17;;;;;;;4.90;1.77;;;26.90;56.50;;;;;;5055117;28;20893;-48
2022/07/06 12:58:58;;;;;;;8.20;1.57;;;26.90;54.10;;;;;;5042267;28;20487;-48